createdAt,value
2023-11-29T00:01:06.733Z,8.80
2023-11-29T00:03:36.210Z,7.60
2023-11-29T00:06:05.578Z,7.10
2023-11-29T00:08:34.519Z,7.80
2023-11-29T00:11:03.502Z,10.50
2023-11-29T00:13:32.372Z,7.40
2023-11-29T00:16:01.471Z,7.30
2023-11-29T00:18:30.410Z,9.60
2023-11-29T00:21:03.045Z,6.90
2023-11-29T00:23:32.902Z,6.90
2023-11-29T00:26:01.924Z,8.10
2023-11-29T00:28:30.874Z,6.70
2023-11-29T00:30:59.594Z,8.60
2023-11-29T00:33:28.459Z,8.00
2023-11-29T00:35:57.190Z,8.30
2023-11-29T00:38:26.031Z,7.20
2023-11-29T00:40:54.753Z,8.00
2023-11-29T00:43:23.622Z,7.40
2023-11-29T00:45:52.423Z,13.30
2023-11-29T00:48:21.206Z,10.40
2023-11-29T00:50:50.051Z,7.80
2023-11-29T00:53:20.271Z,7.80
2023-11-29T00:55:49.435Z,7.60
2023-11-29T00:58:18.658Z,8.50
2023-11-29T01:00:47.751Z,8.00
2023-11-29T01:03:16.643Z,9.50
2023-11-29T01:05:45.747Z,8.80
2023-11-29T01:08:14.523Z,12.00
2023-11-29T01:10:43.531Z,10.00
2023-11-29T01:16:43.913Z,8.60
2023-11-29T01:19:12.696Z,9.10
2023-11-29T01:21:41.648Z,8.20
2023-11-29T01:24:10.410Z,11.10
2023-11-29T01:26:40.297Z,9.90
2023-11-29T01:29:11.746Z,8.80
2023-11-29T01:31:40.828Z,8.30
2023-11-29T01:34:09.904Z,8.80
2023-11-29T01:36:44.476Z,7.50
2023-11-29T01:39:16.449Z,8.00
2023-11-29T01:41:45.221Z,9.20
2023-11-29T01:44:14.080Z,7.30
2023-11-29T01:46:42.943Z,8.50
2023-11-29T01:49:11.709Z,6.90
2023-11-29T01:51:40.669Z,2.40
2023-11-29T01:54:09.618Z,7.10
2023-11-29T01:56:38.970Z,7.50
2023-11-29T01:59:08.192Z,7.80
2023-11-29T02:01:36.969Z,8.80
2023-11-29T02:04:06.782Z,9.00
2023-11-29T02:06:35.470Z,8.10
2023-11-29T02:09:04.365Z,10.20
2023-11-29T02:11:35.010Z,9.10
2023-11-29T02:14:03.807Z,9.40
2023-11-29T02:16:32.925Z,11.20
2023-11-29T02:19:02.540Z,10.30
2023-11-29T02:21:31.498Z,9.60
2023-11-29T02:24:08.944Z,11.40
2023-11-29T02:26:37.881Z,10.50
2023-11-29T02:29:06.589Z,10.00
2023-11-29T02:31:35.445Z,6.90
2023-11-29T02:34:05.299Z,12.30
2023-11-29T02:36:34.143Z,15.50
2023-11-29T02:39:03.094Z,11.80
2023-11-29T02:41:32.034Z,13.10
2023-11-29T02:44:01.370Z,14.30
2023-11-29T02:46:30.120Z,11.80
2023-11-29T02:48:59.367Z,14.10
2023-11-29T02:51:28.970Z,16.30
2023-11-29T02:53:57.701Z,13.00
2023-11-29T02:56:26.552Z,17.00
2023-11-29T02:58:55.553Z,16.10
2023-11-29T03:01:24.601Z,14.70
2023-11-29T03:03:53.479Z,16.00
2023-11-29T03:06:22.330Z,15.20
2023-11-29T03:08:51.160Z,14.40
2023-11-29T03:11:20.089Z,15.30
2023-11-29T03:13:49.141Z,12.00
2023-11-29T03:16:18.017Z,14.30
2023-11-29T03:18:46.944Z,15.10
2023-11-29T03:21:16.817Z,14.10
2023-11-29T03:23:47.993Z,15.10
2023-11-29T03:26:16.985Z,14.00
2023-11-29T03:28:45.745Z,16.60
2023-11-29T03:31:14.561Z,12.90
2023-11-29T03:33:43.443Z,17.00
2023-11-29T03:36:12.367Z,15.50
2023-11-29T03:38:41.214Z,16.50
2023-11-29T03:41:10.078Z,17.30
2023-11-29T03:43:38.996Z,16.20
2023-11-29T03:46:08.257Z,15.90
2023-11-29T03:48:37.151Z,14.30
2023-11-29T03:51:06.413Z,14.60
2023-11-29T03:53:35.386Z,14.00
2023-11-29T03:56:04.652Z,16.00
2023-11-29T03:58:33.571Z,15.70
2023-11-29T04:01:05.837Z,14.80
2023-11-29T04:03:35.390Z,16.90
2023-11-29T04:06:04.436Z,15.80
2023-11-29T04:08:36.721Z,16.30
2023-11-29T04:11:06.215Z,16.40
2023-11-29T04:13:35.205Z,16.40
2023-11-29T04:16:04.166Z,17.30
2023-11-29T04:18:33.188Z,19.70
2023-11-29T04:21:03.081Z,16.50
2023-11-29T04:23:32.330Z,18.00
2023-11-29T04:26:01.365Z,18.80
2023-11-29T04:28:30.777Z,18.20
2023-11-29T04:30:59.692Z,19.00
2023-11-29T04:33:28.730Z,18.80
2023-11-29T04:35:57.781Z,19.30
2023-11-29T04:38:28.276Z,23.10
2023-11-29T04:40:57.249Z,15.90
2023-11-29T04:43:26.551Z,18.80
2023-11-29T04:45:58.009Z,17.10
2023-11-29T04:48:28.364Z,18.70
2023-11-29T04:51:07.537Z,19.00
2023-11-29T04:53:40.818Z,21.90
2023-11-29T04:56:10.321Z,17.60
2023-11-29T04:58:41.448Z,22.50
2023-11-29T05:01:12.016Z,20.00
2023-11-29T05:03:41.383Z,18.70
2023-11-29T05:06:11.556Z,19.30
2023-11-29T05:08:40.730Z,19.30
2023-11-29T05:14:22.450Z,19.00
2023-11-29T05:16:51.393Z,19.60
2023-11-29T05:19:24.339Z,16.90
2023-11-29T05:21:53.655Z,18.90
2023-11-29T05:24:22.694Z,16.40
2023-11-29T05:26:51.632Z,18.00
2023-11-29T05:29:20.871Z,18.90
2023-11-29T05:31:49.937Z,17.90
2023-11-29T05:34:18.898Z,18.70
2023-11-29T05:36:47.923Z,21.30
2023-11-29T05:39:17.051Z,19.80
2023-11-29T05:41:45.960Z,21.90
2023-11-29T05:44:14.793Z,19.00
2023-11-29T05:46:44.867Z,20.60
2023-11-29T05:49:13.791Z,18.20
2023-11-29T05:51:42.732Z,17.70
2023-11-29T05:54:11.511Z,17.20
2023-11-29T05:56:40.470Z,20.10
2023-11-29T05:59:09.355Z,17.50
2023-11-29T06:01:38.699Z,19.60
2023-11-29T06:04:08.212Z,19.30
2023-11-29T06:06:37.249Z,21.90
2023-11-29T06:09:09.460Z,20.00
2023-11-29T06:11:38.465Z,17.10
2023-11-29T06:14:07.238Z,21.40
2023-11-29T06:16:36.846Z,19.60
2023-11-29T06:19:06.012Z,23.00
2023-11-29T06:21:35.071Z,20.60
2023-11-29T06:24:05.582Z,20.70
2023-11-29T06:26:34.620Z,20.50
2023-11-29T06:29:05.410Z,21.30
2023-11-29T06:31:34.324Z,22.40
2023-11-29T06:34:03.152Z,16.40
2023-11-29T06:36:36.981Z,18.10
2023-11-29T06:39:06.258Z,10.20
2023-11-29T06:41:35.169Z,18.40
2023-11-29T06:44:07.115Z,14.00
2023-11-29T06:46:36.586Z,13.70
2023-11-29T06:49:07.775Z,13.40
2023-11-29T06:51:37.300Z,11.20
2023-11-29T06:54:06.723Z,11.40
2023-11-29T06:56:35.617Z,11.90
2023-11-29T06:59:05.572Z,6.90
2023-11-29T07:01:34.686Z,11.20
2023-11-29T07:04:04.608Z,9.90
2023-11-29T07:06:33.568Z,11.20
2023-11-29T07:09:07.157Z,13.90
2023-11-29T07:11:38.631Z,11.00
2023-11-29T07:14:07.821Z,11.40
2023-11-29T07:16:36.705Z,13.30
2023-11-29T07:19:05.648Z,10.30
2023-11-29T07:21:34.505Z,12.50
2023-11-29T07:24:03.477Z,11.80
2023-11-29T07:26:33.202Z,10.40
2023-11-29T07:29:02.161Z,11.00
2023-11-29T07:31:31.594Z,17.30
2023-11-29T07:34:00.690Z,11.70
2023-11-29T07:36:31.206Z,10.30
2023-11-29T07:39:01.710Z,11.20
2023-11-29T07:41:30.587Z,12.10
2023-11-29T07:43:59.496Z,16.50
2023-11-29T07:46:28.466Z,11.40
2023-11-29T07:48:58.908Z,14.80
2023-11-29T07:51:28.509Z,12.60
2023-11-29T07:53:57.570Z,16.30
2023-11-29T07:56:26.710Z,11.40
2023-11-29T07:58:55.670Z,13.50
2023-11-29T08:01:24.565Z,12.70
2023-11-29T08:03:53.348Z,12.70
2023-11-29T08:06:22.589Z,12.60
2023-11-29T08:08:51.529Z,16.90
2023-11-29T08:11:20.786Z,16.00
2023-11-29T08:13:51.491Z,14.50
2023-11-29T08:16:21.030Z,11.80
2023-11-29T08:18:50.008Z,14.20
2023-11-29T08:21:18.937Z,16.50
2023-11-29T08:23:47.924Z,15.20
2023-11-29T08:26:16.859Z,12.80
2023-11-29T08:28:45.903Z,12.20
2023-11-29T08:31:14.827Z,13.30
2023-11-29T08:33:43.682Z,14.20
2023-11-29T08:36:13.502Z,13.50
2023-11-29T08:38:42.565Z,15.20
2023-11-29T08:41:11.490Z,14.40
2023-11-29T08:43:40.297Z,13.60
2023-11-29T08:46:09.360Z,14.70
2023-11-29T08:48:38.568Z,12.90
2023-11-29T08:51:08.340Z,10.80
2023-11-29T08:53:40.778Z,12.50
2023-11-29T08:56:20.696Z,14.40
2023-11-29T08:58:50.351Z,8.50
2023-11-29T09:01:20.783Z,9.00
2023-11-29T09:03:51.344Z,12.60
2023-11-29T09:06:20.783Z,13.70
2023-11-29T09:08:50.071Z,14.80
2023-11-29T09:11:19.349Z,12.30
2023-11-29T09:13:50.331Z,12.50
2023-11-29T09:16:22.545Z,16.00
2023-11-29T09:18:52.561Z,18.20
2023-11-29T09:21:23.002Z,14.40
2023-11-29T09:23:53.203Z,14.00
2023-11-29T09:26:22.581Z,13.10
2023-11-29T09:28:51.851Z,13.70
2023-11-29T09:31:21.426Z,15.70
2023-11-29T09:33:51.467Z,13.80
2023-11-29T09:36:20.599Z,15.90
2023-11-29T09:38:49.648Z,12.70
2023-11-29T09:41:18.957Z,17.30
2023-11-29T09:43:48.936Z,14.70
2023-11-29T09:46:19.242Z,11.90
2023-11-29T09:48:49.058Z,14.80
2023-11-29T09:53:52.557Z,17.70
2023-11-29T09:56:21.552Z,13.70
2023-11-29T09:58:50.754Z,16.00
2023-11-29T10:01:20.348Z,22.30
2023-11-29T10:04:21.784Z,16.30
2023-11-29T10:06:50.787Z,17.20
2023-11-29T10:09:20.023Z,18.50
2023-11-29T10:11:49.764Z,18.80
2023-11-29T10:14:18.769Z,13.70
2023-11-29T10:16:54.372Z,16.10
2023-11-29T10:19:23.291Z,18.80
2023-11-29T10:21:55.768Z,19.40
2023-11-29T10:27:57.957Z,19.10
2023-11-29T10:30:26.941Z,19.10
2023-11-29T10:32:56.926Z,20.00
2023-11-29T10:35:26.500Z,18.50
2023-11-29T10:38:09.075Z,20.20
2023-11-29T10:40:41.283Z,21.30
2023-11-29T10:43:14.600Z,19.40
2023-11-29T10:45:45.972Z,13.90
2023-11-29T10:48:23.390Z,24.90
2023-11-29T10:50:52.428Z,23.20
2023-11-29T10:53:21.877Z,24.10
2023-11-29T10:55:51.492Z,16.90
2023-11-29T10:58:29.262Z,20.80
2023-11-29T11:00:58.108Z,22.80
2023-11-29T11:03:44.346Z,20.30
2023-11-29T11:06:25.547Z,21.60
2023-11-29T11:08:55.753Z,27.10
2023-11-29T11:11:45.756Z,21.80
2023-11-29T11:14:31.679Z,25.70
2023-11-29T11:17:10.970Z,24.60
2023-11-29T11:19:42.638Z,23.40
2023-11-29T11:22:35.556Z,28.70
2023-11-29T11:25:15.003Z,24.70
2023-11-29T11:27:49.432Z,23.20
2023-11-29T11:30:18.610Z,24.50
2023-11-29T11:32:52.500Z,22.80
2023-11-29T11:35:22.983Z,29.60
2023-11-29T11:37:57.443Z,20.80
2023-11-29T11:40:36.389Z,21.30
2023-11-29T11:43:06.898Z,24.10
2023-11-29T11:45:38.200Z,16.30
2023-11-29T11:48:09.610Z,22.00
2023-11-29T11:50:38.849Z,22.10
2023-11-29T11:53:08.428Z,23.00
2023-11-29T11:55:41.545Z,21.60
2023-11-29T11:58:11.436Z,18.50
2023-11-29T12:00:40.967Z,28.00
2023-11-29T12:03:11.402Z,21.80
2023-11-29T12:05:41.356Z,21.40
2023-11-29T12:08:10.717Z,20.30
2023-11-29T12:10:39.936Z,26.20
2023-11-29T12:13:08.772Z,21.70
2023-11-29T12:15:39.084Z,24.30
2023-11-29T12:18:18.302Z,25.40
2023-11-29T12:20:50.936Z,20.90
2023-11-29T12:23:29.907Z,23.20
2023-11-29T12:25:59.012Z,17.40
2023-11-29T12:28:30.001Z,18.40
2023-11-29T12:31:00.856Z,18.00
2023-11-29T12:33:31.883Z,23.20
2023-11-29T12:36:01.142Z,18.80
2023-11-29T12:38:30.056Z,20.50
2023-11-29T12:40:58.974Z,18.40
2023-11-29T12:43:27.946Z,19.20
2023-11-29T12:45:58.981Z,15.40
2023-11-29T12:48:29.719Z,21.00
2023-11-29T12:50:58.973Z,21.10
2023-11-29T12:53:28.943Z,20.80
2023-11-29T12:55:57.870Z,15.70
2023-11-29T12:58:26.990Z,19.00
2023-11-29T13:00:56.382Z,15.00
2023-11-29T13:03:25.183Z,15.00
2023-11-29T13:05:54.259Z,23.90
2023-11-29T13:08:23.211Z,19.90
2023-11-29T13:10:53.698Z,8.20
2023-11-29T13:13:22.651Z,24.40
2023-11-29T13:15:51.768Z,9.60
2023-11-29T13:18:21.061Z,20.00
2023-11-29T13:20:50.062Z,14.10
2023-11-29T13:23:19.660Z,12.50
2023-11-29T13:25:49.153Z,15.80
2023-11-29T13:31:46.864Z,18.40
2023-11-29T13:34:15.921Z,19.80
2023-11-29T13:36:44.896Z,23.60
2023-11-29T13:39:13.781Z,16.60
2023-11-29T13:41:42.849Z,14.40
2023-11-29T13:44:13.806Z,13.90
2023-11-29T13:46:43.856Z,14.60
2023-11-29T13:49:39.475Z,17.90
2023-11-29T13:52:22.453Z,13.40
2023-11-29T13:54:53.081Z,15.00
2023-11-29T13:57:22.169Z,14.70
2023-11-29T13:59:51.006Z,9.60
2023-11-29T14:02:20.398Z,14.10
2023-11-29T14:04:49.997Z,13.80
2023-11-29T14:07:19.460Z,14.40
2023-11-29T14:09:48.809Z,18.70
2023-11-29T14:12:20.816Z,14.80
2023-11-29T14:14:49.721Z,17.50
2023-11-29T14:17:18.807Z,15.80
2023-11-29T14:19:47.830Z,15.30
2023-11-29T14:22:19.542Z,16.40
2023-11-29T14:24:48.546Z,16.30
2023-11-29T14:27:17.537Z,13.80
2023-11-29T14:29:46.603Z,11.80
2023-11-29T14:32:15.645Z,18.10
2023-11-29T14:34:46.586Z,18.80
2023-11-29T14:37:17.343Z,10.40
2023-11-29T14:39:46.535Z,15.10
2023-11-29T14:42:15.532Z,15.50
2023-11-29T14:44:44.449Z,13.70
2023-11-29T14:47:13.617Z,12.20
2023-11-29T14:49:42.773Z,14.90
2023-11-29T14:52:11.795Z,18.40
2023-11-29T14:54:40.767Z,19.50
2023-11-29T14:57:09.954Z,21.60
2023-11-29T14:59:38.879Z,21.10
2023-11-29T15:02:14.179Z,16.90
2023-11-29T15:04:43.183Z,16.60
2023-11-29T15:07:12.150Z,15.30
2023-11-29T15:10:07.460Z,25.10
2023-11-29T15:12:36.630Z,11.10
2023-11-29T15:15:06.492Z,15.40
2023-11-29T15:17:35.684Z,13.80
2023-11-29T15:20:07.734Z,11.30
2023-11-29T15:22:38.441Z,10.90
2023-11-29T15:25:14.756Z,10.40
2023-11-29T15:27:49.355Z,12.30
2023-11-29T15:30:19.146Z,15.80
2023-11-29T15:32:51.416Z,12.20
2023-11-29T15:35:21.979Z,15.50
2023-11-29T15:37:51.376Z,19.40
2023-11-29T15:40:20.982Z,13.40
2023-11-29T15:42:59.727Z,16.00
2023-11-29T15:45:28.882Z,19.30
2023-11-29T15:47:58.753Z,16.70
2023-11-29T15:50:28.011Z,14.30
2023-11-29T15:52:56.976Z,11.90
2023-11-29T15:55:26.911Z,10.80
2023-11-29T15:57:55.782Z,15.70
2023-11-29T16:00:26.270Z,13.20
2023-11-29T16:03:01.046Z,12.20
2023-11-29T16:05:30.484Z,15.60
2023-11-29T16:07:59.446Z,13.40
2023-11-29T16:10:28.691Z,16.60
2023-11-29T16:12:58.736Z,17.50
2023-11-29T16:15:28.420Z,17.50
2023-11-29T16:17:57.341Z,15.50
2023-11-29T16:20:26.323Z,13.20
2023-11-29T16:22:55.200Z,19.50
2023-11-29T16:25:24.460Z,12.40
2023-11-29T16:27:53.431Z,18.50
2023-11-29T16:30:22.272Z,16.40
2023-11-29T16:32:52.304Z,15.80
2023-11-29T16:35:21.361Z,14.10
2023-11-29T16:37:54.366Z,11.20
2023-11-29T16:40:23.370Z,12.30
2023-11-29T16:42:52.512Z,14.40
2023-11-29T16:45:24.185Z,14.10
2023-11-29T16:47:54.597Z,14.70
2023-11-29T16:50:23.653Z,13.50
2023-11-29T16:52:52.746Z,10.30
2023-11-29T16:55:21.881Z,16.90
2023-11-29T16:57:50.914Z,15.70
2023-11-29T17:00:20.624Z,11.40
2023-11-29T17:02:49.730Z,15.30
2023-11-29T17:05:19.663Z,13.90
2023-11-29T17:07:48.690Z,16.70
2023-11-29T17:10:17.460Z,10.90
2023-11-29T17:12:46.324Z,14.90
2023-11-29T17:15:20.086Z,12.60
2023-11-29T17:17:49.112Z,19.40
2023-11-29T17:20:18.133Z,19.80
2023-11-29T17:22:46.937Z,15.80
2023-11-29T17:25:19.306Z,18.00
2023-11-29T17:30:17.630Z,14.70
2023-11-29T17:32:47.179Z,13.00
2023-11-29T17:35:16.480Z,11.40
2023-11-29T17:37:45.554Z,16.10
2023-11-29T17:40:14.725Z,18.90
2023-11-29T17:42:44.125Z,10.50
2023-11-29T17:45:13.378Z,10.40
2023-11-29T17:47:42.332Z,12.40
2023-11-29T17:50:11.227Z,10.50
2023-11-29T17:52:42.020Z,13.50
2023-11-29T17:55:11.848Z,15.80
2023-11-29T17:57:42.713Z,10.90
2023-11-29T18:00:12.757Z,16.30
2023-11-29T18:02:41.604Z,18.30
2023-11-29T18:05:10.626Z,16.20
2023-11-29T18:07:39.441Z,16.40
2023-11-29T18:10:08.912Z,16.50
2023-11-29T18:12:37.852Z,14.30
2023-11-29T18:15:07.802Z,20.40
2023-11-29T18:17:36.968Z,13.80
2023-11-29T18:20:07.406Z,15.10
2023-11-29T18:22:36.259Z,12.80
2023-11-29T18:25:05.407Z,16.40
2023-11-29T18:27:34.351Z,12.10
2023-11-29T18:30:03.497Z,15.50
2023-11-29T18:32:32.489Z,19.50
2023-11-29T18:35:01.682Z,16.10
2023-11-29T21:53:49.082Z,22.60
2023-11-29T21:56:19.928Z,23.50
2023-11-29T21:58:48.914Z,25.90
2023-11-29T22:01:20.887Z,24.80
2023-11-29T22:03:49.692Z,24.60
2023-11-29T22:06:18.371Z,29.40
2023-11-29T22:08:51.427Z,24.90
2023-11-29T22:11:20.415Z,27.70
2023-11-29T22:13:49.831Z,23.00
2023-11-29T22:16:25.350Z,24.30
2023-11-29T22:18:56.061Z,32.70
2023-11-29T22:21:27.215Z,38.10
2023-11-29T22:23:57.074Z,30.20
2023-11-29T22:26:27.817Z,46.90
2023-11-29T22:28:56.690Z,38.70
2023-11-29T22:31:25.636Z,38.50
2023-11-29T22:33:54.610Z,38.10
2023-11-29T22:36:23.507Z,36.80
2023-11-29T22:38:52.366Z,32.90
2023-11-29T22:41:28.576Z,32.70
2023-11-29T22:43:58.786Z,26.70
2023-11-29T22:46:29.221Z,30.60
2023-11-29T22:48:57.973Z,29.40
2023-11-29T22:51:26.893Z,29.10
2023-11-29T22:53:58.208Z,28.20
2023-11-29T22:56:26.752Z,31.10
2023-11-29T22:58:55.488Z,26.10
2023-11-29T23:01:28.534Z,26.00
2023-11-29T23:03:57.789Z,26.30
2023-11-29T23:06:27.734Z,25.10
2023-11-29T23:08:57.296Z,28.50
2023-11-29T23:11:26.485Z,21.80
2023-11-29T23:13:55.968Z,27.40
2023-11-29T23:16:25.146Z,37.70
2023-11-29T23:18:54.099Z,28.30
2023-11-29T23:21:23.216Z,29.40
2023-11-29T23:23:52.161Z,27.80
2023-11-29T23:26:21.181Z,36.20
2023-11-29T23:28:50.158Z,27.20
2023-11-29T23:31:19.164Z,31.50
2023-11-29T23:33:48.156Z,32.20
2023-11-29T23:36:17.114Z,30.70
2023-11-29T23:38:46.225Z,31.50
2023-11-29T23:41:18.198Z,25.40
2023-11-29T23:43:47.162Z,32.80
2023-11-29T23:46:16.179Z,33.20
2023-11-29T23:48:45.284Z,28.50
2023-11-29T23:51:14.226Z,28.20
2023-11-29T23:53:45.097Z,30.50
2023-11-29T23:58:44.370Z,23.70
